Lake Holcombe, Wisconsin
Current Conditions -  °F | °C
As of 4:55 AM on Friday 31 Oct 2014 (Local Time) from KY23 Reporting Station
Clear Clear  
Wind Chill: 21°   Ceiling: Unl
Heat Index: 30°   Visibility: 10mi
Dew Point: 20°   Wind: 10mph
Humidity: 69%   Direction: 340°NNW
Pressure: 30.39"   Gusts: 23mph
Location:  45.2521°N, 91.2394°W
Report Text: KY23 310955Z AUTO 34009G20KT 300V360 10SM CLR M01/M06 A3039 RMK AO2 T10131064
Loading
Personal Weather Stations






























Interactive Weather Map
Tropical Storm Tracking
New forecast layout! Learn more

10-Day Weather Forecast

Advertisements
Track Severe Weather on mobile